sensor_id;sensor_type;location;lat;lon;timestamp;P1;durP1;ratioP1;P2;durP2;ratioP2
60999;SDS011;46879;45.658;11.814;2022-12-29T00:02:16;13.57;;;7.30;;
60999;SDS011;46879;45.658;11.814;2022-12-29T00:07:17;11.40;;;7.20;;
60999;SDS011;46879;45.658;11.814;2022-12-29T00:12:17;13.80;;;6.72;;
60999;SDS011;46879;45.658;11.814;2022-12-29T00:17:17;10.38;;;6.88;;
60999;SDS011;46879;45.658;11.814;2022-12-29T00:22:18;10.37;;;6.53;;
60999;SDS011;46879;45.658;11.814;2022-12-29T00:38:14;14.75;;;6.82;;
60999;SDS011;46879;45.658;11.814;2022-12-29T00:43:33;9.68;;;6.53;;
60999;SDS011;46879;45.658;11.814;2022-12-29T00:59:11;11.07;;;6.47;;
60999;SDS011;46879;45.658;11.814;2022-12-29T01:04:12;9.25;;;6.82;;
60999;SDS011;46879;45.658;11.814;2022-12-29T01:09:12;13.05;;;6.57;;
60999;SDS011;46879;45.658;11.814;2022-12-29T01:14:31;9.00;;;5.57;;
60999;SDS011;46879;45.658;11.814;2022-12-29T01:19:32;8.45;;;5.88;;
60999;SDS011;46879;45.658;11.814;2022-12-29T01:24:32;8.98;;;5.70;;
60999;SDS011;46879;45.658;11.814;2022-12-29T01:29:32;8.25;;;5.40;;
60999;SDS011;46879;45.658;11.814;2022-12-29T01:34:32;8.77;;;5.80;;
60999;SDS011;46879;45.658;11.814;2022-12-29T01:39:33;9.32;;;5.93;;
60999;SDS011;46879;45.658;11.814;2022-12-29T01:49:45;9.15;;;6.03;;
60999;SDS011;46879;45.658;11.814;2022-12-29T01:54:47;10.63;;;6.00;;
60999;SDS011;46879;45.658;11.814;2022-12-29T01:59:51;7.85;;;5.50;;
60999;SDS011;46879;45.658;11.814;2022-12-29T02:04:53;9.95;;;5.85;;
60999;SDS011;46879;45.658;11.814;2022-12-29T02:09:55;11.43;;;6.18;;
60999;SDS011;46879;45.658;11.814;2022-12-29T02:14:57;8.73;;;5.78;;
60999;SDS011;46879;45.658;11.814;2022-12-29T02:20:11;9.30;;;5.70;;
60999;SDS011;46879;45.658;11.814;2022-12-29T02:40:56;6.80;;;4.88;;
60999;SDS011;46879;45.658;11.814;2022-12-29T02:46:04;7.57;;;4.82;;
60999;SDS011;46879;45.658;11.814;2022-12-29T02:51:18;8.18;;;5.22;;
60999;SDS011;46879;45.658;11.814;2022-12-29T02:56:19;6.85;;;5.15;;
60999;SDS011;46879;45.658;11.814;2022-12-29T03:06:38;9.13;;;5.13;;
60999;SDS011;46879;45.658;11.814;2022-12-29T03:12:29;9.95;;;5.10;;
60999;SDS011;46879;45.658;11.814;2022-12-29T03:17:15;8.18;;;5.50;;
60999;SDS011;46879;45.658;11.814;2022-12-29T03:22:19;5.73;;;4.67;;
60999;SDS011;46879;45.658;11.814;2022-12-29T03:27:31;7.13;;;5.28;;
60999;SDS011;46879;45.658;11.814;2022-12-29T03:32:42;7.35;;;5.40;;
60999;SDS011;46879;45.658;11.814;2022-12-29T03:37:55;7.65;;;4.72;;
60999;SDS011;46879;45.658;11.814;2022-12-29T03:42:58;6.97;;;5.20;;
60999;SDS011;46879;45.658;11.814;2022-12-29T03:47:58;5.25;;;4.40;;
60999;SDS011;46879;45.658;11.814;2022-12-29T03:52:59;9.43;;;6.20;;
60999;SDS011;46879;45.658;11.814;2022-12-29T03:57:59;6.70;;;5.20;;
60999;SDS011;46879;45.658;11.814;2022-12-29T04:02:59;7.03;;;4.90;;
60999;SDS011;46879;45.658;11.814;2022-12-29T04:08:00;7.40;;;5.00;;
60999;SDS011;46879;45.658;11.814;2022-12-29T04:13:00;5.43;;;4.10;;
60999;SDS011;46879;45.658;11.814;2022-12-29T04:18:00;6.60;;;4.72;;
60999;SDS011;46879;45.658;11.814;2022-12-29T04:23:04;6.07;;;4.40;;
60999;SDS011;46879;45.658;11.814;2022-12-29T04:28:05;7.65;;;4.60;;
60999;SDS011;46879;45.658;11.814;2022-12-29T04:33:07;7.85;;;4.72;;
60999;SDS011;46879;45.658;11.814;2022-12-29T04:38:08;7.60;;;4.50;;
60999;SDS011;46879;45.658;11.814;2022-12-29T04:43:08;5.38;;;4.75;;
60999;SDS011;46879;45.658;11.814;2022-12-29T04:48:09;5.93;;;4.13;;
60999;SDS011;46879;45.658;11.814;2022-12-29T04:53:10;5.22;;;4.35;;
60999;SDS011;46879;45.658;11.814;2022-12-29T04:58:10;6.43;;;4.65;;
60999;SDS011;46879;45.658;11.814;2022-12-29T05:03:10;6.40;;;4.45;;
60999;SDS011;46879;45.658;11.814;2022-12-29T05:08:11;7.47;;;4.53;;
60999;SDS011;46879;45.658;11.814;2022-12-29T05:13:11;5.93;;;4.38;;
60999;SDS011;46879;45.658;11.814;2022-12-29T05:18:11;5.43;;;4.18;;
60999;SDS011;46879;45.658;11.814;2022-12-29T05:23:12;5.50;;;4.07;;
60999;SDS011;46879;45.658;11.814;2022-12-29T05:28:12;6.90;;;4.60;;
60999;SDS011;46879;45.658;11.814;2022-12-29T05:33:13;5.90;;;4.53;;
60999;SDS011;46879;45.658;11.814;2022-12-29T05:38:13;6.55;;;4.40;;
60999;SDS011;46879;45.658;11.814;2022-12-29T05:43:13;5.07;;;4.03;;
60999;SDS011;46879;45.658;11.814;2022-12-29T05:48:13;5.43;;;4.13;;
60999;SDS011;46879;45.658;11.814;2022-12-29T05:53:14;6.13;;;4.20;;
60999;SDS011;46879;45.658;11.814;2022-12-29T05:58:14;6.05;;;4.32;;
60999;SDS011;46879;45.658;11.814;2022-12-29T06:03:15;6.55;;;4.10;;
60999;SDS011;46879;45.658;11.814;2022-12-29T06:08:15;5.53;;;3.97;;
60999;SDS011;46879;45.658;11.814;2022-12-29T06:13:15;6.38;;;4.22;;
60999;SDS011;46879;45.658;11.814;2022-12-29T06:18:16;5.13;;;3.97;;
60999;SDS011;46879;45.658;11.814;2022-12-29T06:23:16;6.63;;;4.30;;
60999;SDS011;46879;45.658;11.814;2022-12-29T06:28:18;7.75;;;4.07;;
60999;SDS011;46879;45.658;11.814;2022-12-29T06:33:18;13.40;;;3.78;;
60999;SDS011;46879;45.658;11.814;2022-12-29T06:38:19;14.67;;;4.93;;
60999;SDS011;46879;45.658;11.814;2022-12-29T06:43:19;9.05;;;4.70;;
60999;SDS011;46879;45.658;11.814;2022-12-29T06:48:21;9.95;;;4.85;;
60999;SDS011;46879;45.658;11.814;2022-12-29T06:53:22;8.07;;;4.53;;
60999;SDS011;46879;45.658;11.814;2022-12-29T06:58:22;8.43;;;4.18;;
60999;SDS011;46879;45.658;11.814;2022-12-29T07:03:22;5.05;;;4.53;;
60999;SDS011;46879;45.658;11.814;2022-12-29T07:08:23;11.05;;;5.05;;
60999;SDS011;46879;45.658;11.814;2022-12-29T07:13:23;17.15;;;5.40;;
60999;SDS011;46879;45.658;11.814;2022-12-29T07:18:23;9.70;;;5.15;;
60999;SDS011;46879;45.658;11.814;2022-12-29T07:23:24;7.70;;;5.00;;
60999;SDS011;46879;45.658;11.814;2022-12-29T07:28:24;8.47;;;5.20;;
60999;SDS011;46879;45.658;11.814;2022-12-29T07:33:24;8.93;;;4.93;;
60999;SDS011;46879;45.658;11.814;2022-12-29T07:38:25;7.00;;;4.90;;
60999;SDS011;46879;45.658;11.814;2022-12-29T07:43:25;8.20;;;4.63;;
60999;SDS011;46879;45.658;11.814;2022-12-29T07:48:25;9.40;;;4.82;;
60999;SDS011;46879;45.658;11.814;2022-12-29T07:53:26;6.17;;;4.90;;
60999;SDS011;46879;45.658;11.814;2022-12-29T07:58:26;7.22;;;4.90;;
60999;SDS011;46879;45.658;11.814;2022-12-29T08:03:26;9.57;;;4.80;;
60999;SDS011;46879;45.658;11.814;2022-12-29T08:08:26;7.85;;;4.45;;
60999;SDS011;46879;45.658;11.814;2022-12-29T08:13:27;5.35;;;4.18;;
60999;SDS011;46879;45.658;11.814;2022-12-29T08:18:27;11.03;;;4.70;;
60999;SDS011;46879;45.658;11.814;2022-12-29T08:23:27;6.45;;;4.40;;
60999;SDS011;46879;45.658;11.814;2022-12-29T08:28:28;6.45;;;4.32;;
60999;SDS011;46879;45.658;11.814;2022-12-29T08:33:29;11.65;;;4.70;;
60999;SDS011;46879;45.658;11.814;2022-12-29T08:38:29;16.80;;;5.10;;
60999;SDS011;46879;45.658;11.814;2022-12-29T08:43:30;15.57;;;5.03;;
60999;SDS011;46879;45.658;11.814;2022-12-29T08:48:30;19.33;;;5.15;;
60999;SDS011;46879;45.658;11.814;2022-12-29T08:53:30;36.67;;;5.45;;
60999;SDS011;46879;45.658;11.814;2022-12-29T08:58:31;34.95;;;5.45;;
60999;SDS011;46879;45.658;11.814;2022-12-29T09:03:31;16.60;;;4.90;;
60999;SDS011;46879;45.658;11.814;2022-12-29T09:08:31;19.92;;;5.18;;
60999;SDS011;46879;45.658;11.814;2022-12-29T09:13:31;16.08;;;5.20;;
60999;SDS011;46879;45.658;11.814;2022-12-29T09:18:32;8.75;;;5.05;;
60999;SDS011;46879;45.658;11.814;2022-12-29T09:23:33;11.30;;;5.40;;
60999;SDS011;46879;45.658;11.814;2022-12-29T09:28:34;12.27;;;4.85;;
60999;SDS011;46879;45.658;11.814;2022-12-29T09:33:34;8.80;;;5.13;;
60999;SDS011;46879;45.658;11.814;2022-12-29T09:38:34;9.30;;;4.97;;
60999;SDS011;46879;45.658;11.814;2022-12-29T09:43:43;8.70;;;5.22;;
60999;SDS011;46879;45.658;11.814;2022-12-29T09:48:50;12.35;;;5.43;;
60999;SDS011;46879;45.658;11.814;2022-12-29T09:53:57;11.40;;;5.65;;
60999;SDS011;46879;45.658;11.814;2022-12-29T09:59:07;9.40;;;5.35;;
60999;SDS011;46879;45.658;11.814;2022-12-29T10:04:10;13.63;;;5.40;;
60999;SDS011;46879;45.658;11.814;2022-12-29T10:10:00;11.63;;;5.28;;
60999;SDS011;46879;45.658;11.814;2022-12-29T10:20:02;7.18;;;5.07;;
60999;SDS011;46879;45.658;11.814;2022-12-29T10:25:27;10.50;;;4.90;;
60999;SDS011;46879;45.658;11.814;2022-12-29T10:30:26;8.80;;;5.25;;
60999;SDS011;46879;45.658;11.814;2022-12-29T10:35:30;8.77;;;5.53;;
60999;SDS011;46879;45.658;11.814;2022-12-29T10:41:20;10.85;;;4.97;;
60999;SDS011;46879;45.658;11.814;2022-12-29T10:45:54;10.65;;;5.18;;
60999;SDS011;46879;45.658;11.814;2022-12-29T10:50:55;7.30;;;5.07;;
60999;SDS011;46879;45.658;11.814;2022-12-29T10:55:56;8.77;;;5.20;;
60999;SDS011;46879;45.658;11.814;2022-12-29T11:00:58;6.75;;;5.03;;
60999;SDS011;46879;45.658;11.814;2022-12-29T11:06:09;7.72;;;5.47;;
60999;SDS011;46879;45.658;11.814;2022-12-29T11:11:10;7.80;;;4.43;;
60999;SDS011;46879;45.658;11.814;2022-12-29T11:16:11;6.72;;;4.47;;
60999;SDS011;46879;45.658;11.814;2022-12-29T11:26:48;5.88;;;4.30;;
60999;SDS011;46879;45.658;11.814;2022-12-29T11:31:49;9.40;;;4.90;;
60999;SDS011;46879;45.658;11.814;2022-12-29T11:36:50;6.68;;;4.45;;
60999;SDS011;46879;45.658;11.814;2022-12-29T11:41:51;6.50;;;4.43;;
60999;SDS011;46879;45.658;11.814;2022-12-29T11:46:52;5.65;;;4.70;;
60999;SDS011;46879;45.658;11.814;2022-12-29T11:51:53;5.32;;;4.60;;
60999;SDS011;46879;45.658;11.814;2022-12-29T11:56:57;5.53;;;4.30;;
60999;SDS011;46879;45.658;11.814;2022-12-29T12:01:58;8.70;;;4.68;;
60999;SDS011;46879;45.658;11.814;2022-12-29T12:07:00;10.93;;;5.03;;
60999;SDS011;46879;45.658;11.814;2022-12-29T12:12:03;5.88;;;4.30;;
60999;SDS011;46879;45.658;11.814;2022-12-29T12:17:18;8.60;;;4.65;;
60999;SDS011;46879;45.658;11.814;2022-12-29T12:22:21;10.57;;;4.82;;
60999;SDS011;46879;45.658;11.814;2022-12-29T12:27:36;7.45;;;4.78;;
60999;SDS011;46879;45.658;11.814;2022-12-29T12:32:56;6.72;;;4.50;;
60999;SDS011;46879;45.658;11.814;2022-12-29T12:43:24;10.30;;;4.88;;
60999;SDS011;46879;45.658;11.814;2022-12-29T13:03:54;16.48;;;5.95;;
60999;SDS011;46879;45.658;11.814;2022-12-29T13:09:12;11.88;;;5.03;;
60999;SDS011;46879;45.658;11.814;2022-12-29T13:24:31;13.73;;;5.57;;
60999;SDS011;46879;45.658;11.814;2022-12-29T13:29:36;7.70;;;4.88;;
60999;SDS011;46879;45.658;11.814;2022-12-29T13:39:49;11.00;;;5.13;;
60999;SDS011;46879;45.658;11.814;2022-12-29T13:44:55;11.15;;;6.10;;
60999;SDS011;46879;45.658;11.814;2022-12-29T13:49:58;7.68;;;5.35;;
60999;SDS011;46879;45.658;11.814;2022-12-29T13:55:20;11.68;;;5.30;;
60999;SDS011;46879;45.658;11.814;2022-12-29T14:00:23;7.38;;;4.90;;
60999;SDS011;46879;45.658;11.814;2022-12-29T14:05:28;11.00;;;5.10;;
60999;SDS011;46879;45.658;11.814;2022-12-29T14:15:59;11.80;;;5.78;;
60999;SDS011;46879;45.658;11.814;2022-12-29T14:21:19;9.00;;;5.30;;
60999;SDS011;46879;45.658;11.814;2022-12-29T14:37:30;10.25;;;5.45;;
60999;SDS011;46879;45.658;11.814;2022-12-29T14:41:59;6.90;;;5.00;;
60999;SDS011;46879;45.658;11.814;2022-12-29T14:47:00;7.35;;;5.13;;
60999;SDS011;46879;45.658;11.814;2022-12-29T14:52:06;8.95;;;5.10;;
60999;SDS011;46879;45.658;11.814;2022-12-29T14:57:11;8.23;;;4.93;;
60999;SDS011;46879;45.658;11.814;2022-12-29T15:02:16;10.27;;;5.25;;
60999;SDS011;46879;45.658;11.814;2022-12-29T15:07:16;7.85;;;5.30;;
60999;SDS011;46879;45.658;11.814;2022-12-29T15:17:36;8.23;;;5.15;;
60999;SDS011;46879;45.658;11.814;2022-12-29T15:22:38;7.93;;;5.15;;
60999;SDS011;46879;45.658;11.814;2022-12-29T15:27:41;7.72;;;5.18;;
60999;SDS011;46879;45.658;11.814;2022-12-29T15:32:45;6.60;;;4.93;;
60999;SDS011;46879;45.658;11.814;2022-12-29T15:37:46;7.82;;;4.47;;
60999;SDS011;46879;45.658;11.814;2022-12-29T15:48:05;6.35;;;4.68;;
60999;SDS011;46879;45.658;11.814;2022-12-29T15:53:10;11.75;;;5.35;;
60999;SDS011;46879;45.658;11.814;2022-12-29T15:58:24;6.32;;;4.93;;
60999;SDS011;46879;45.658;11.814;2022-12-29T16:03:26;6.57;;;4.97;;
60999;SDS011;46879;45.658;11.814;2022-12-29T16:08:29;5.22;;;4.47;;
60999;SDS011;46879;45.658;11.814;2022-12-29T16:13:37;7.25;;;4.55;;
60999;SDS011;46879;45.658;11.814;2022-12-29T16:18:39;7.20;;;4.70;;
60999;SDS011;46879;45.658;11.814;2022-12-29T16:23:39;8.00;;;5.57;;
60999;SDS011;46879;45.658;11.814;2022-12-29T16:28:40;7.18;;;4.90;;
60999;SDS011;46879;45.658;11.814;2022-12-29T16:33:45;7.95;;;4.28;;
60999;SDS011;46879;45.658;11.814;2022-12-29T16:38:46;6.28;;;4.65;;
60999;SDS011;46879;45.658;11.814;2022-12-29T16:43:46;5.22;;;4.55;;
60999;SDS011;46879;45.658;11.814;2022-12-29T16:48:47;6.95;;;4.50;;
60999;SDS011;46879;45.658;11.814;2022-12-29T16:53:50;7.55;;;4.80;;
60999;SDS011;46879;45.658;11.814;2022-12-29T16:58:52;8.20;;;5.05;;
60999;SDS011;46879;45.658;11.814;2022-12-29T17:04:00;7.05;;;4.78;;
60999;SDS011;46879;45.658;11.814;2022-12-29T17:09:01;5.72;;;4.93;;
60999;SDS011;46879;45.658;11.814;2022-12-29T17:14:01;6.53;;;4.83;;
60999;SDS011;46879;45.658;11.814;2022-12-29T17:19:01;6.20;;;5.15;;
60999;SDS011;46879;45.658;11.814;2022-12-29T17:24:01;6.72;;;4.82;;
60999;SDS011;46879;45.658;11.814;2022-12-29T17:29:04;8.13;;;5.45;;
60999;SDS011;46879;45.658;11.814;2022-12-29T17:34:04;8.23;;;5.18;;
60999;SDS011;46879;45.658;11.814;2022-12-29T17:39:05;7.70;;;5.07;;
60999;SDS011;46879;45.658;11.814;2022-12-29T17:44:05;9.73;;;5.25;;
60999;SDS011;46879;45.658;11.814;2022-12-29T17:49:09;6.80;;;5.32;;
60999;SDS011;46879;45.658;11.814;2022-12-29T17:54:27;12.32;;;5.85;;
60999;SDS011;46879;45.658;11.814;2022-12-29T17:59:28;15.18;;;5.82;;
60999;SDS011;46879;45.658;11.814;2022-12-29T18:04:28;8.48;;;5.47;;
60999;SDS011;46879;45.658;11.814;2022-12-29T18:09:28;22.50;;;6.13;;
60999;SDS011;46879;45.658;11.814;2022-12-29T18:14:28;9.60;;;5.95;;
60999;SDS011;46879;45.658;11.814;2022-12-29T18:19:29;8.52;;;6.00;;
60999;SDS011;46879;45.658;11.814;2022-12-29T18:24:29;12.93;;;6.10;;
60999;SDS011;46879;45.658;11.814;2022-12-29T18:29:29;10.05;;;6.35;;
60999;SDS011;46879;45.658;11.814;2022-12-29T18:34:29;13.10;;;7.50;;
60999;SDS011;46879;45.658;11.814;2022-12-29T18:39:30;14.98;;;7.65;;
60999;SDS011;46879;45.658;11.814;2022-12-29T18:44:30;10.25;;;6.47;;
60999;SDS011;46879;45.658;11.814;2022-12-29T18:49:30;8.77;;;6.50;;
60999;SDS011;46879;45.658;11.814;2022-12-29T18:54:31;8.98;;;6.80;;
60999;SDS011;46879;45.658;11.814;2022-12-29T18:59:32;17.80;;;7.18;;
60999;SDS011;46879;45.658;11.814;2022-12-29T19:04:32;14.00;;;7.55;;
60999;SDS011;46879;45.658;11.814;2022-12-29T19:09:32;13.07;;;6.72;;
60999;SDS011;46879;45.658;11.814;2022-12-29T19:14:33;12.00;;;7.65;;
60999;SDS011;46879;45.658;11.814;2022-12-29T19:19:33;10.52;;;7.18;;
60999;SDS011;46879;45.658;11.814;2022-12-29T19:24:33;14.65;;;7.50;;
60999;SDS011;46879;45.658;11.814;2022-12-29T19:29:33;12.20;;;7.63;;
60999;SDS011;46879;45.658;11.814;2022-12-29T19:34:34;13.95;;;7.60;;
60999;SDS011;46879;45.658;11.814;2022-12-29T19:39:34;11.85;;;7.55;;
60999;SDS011;46879;45.658;11.814;2022-12-29T19:44:34;13.27;;;7.78;;
60999;SDS011;46879;45.658;11.814;2022-12-29T19:49:35;13.75;;;8.18;;
60999;SDS011;46879;45.658;11.814;2022-12-29T19:54:35;11.93;;;7.75;;
60999;SDS011;46879;45.658;11.814;2022-12-29T19:59:35;11.10;;;7.18;;
60999;SDS011;46879;45.658;11.814;2022-12-29T20:04:35;33.50;;;9.77;;
60999;SDS011;46879;45.658;11.814;2022-12-29T20:09:36;22.73;;;8.93;;
60999;SDS011;46879;45.658;11.814;2022-12-29T20:14:36;24.75;;;7.88;;
60999;SDS011;46879;45.658;11.814;2022-12-29T20:19:37;17.45;;;7.90;;
60999;SDS011;46879;45.658;11.814;2022-12-29T20:24:38;15.43;;;8.70;;
60999;SDS011;46879;45.658;11.814;2022-12-29T20:29:39;15.57;;;8.13;;
60999;SDS011;46879;45.658;11.814;2022-12-29T20:34:42;14.68;;;8.85;;
60999;SDS011;46879;45.658;11.814;2022-12-29T20:39:43;15.13;;;9.13;;
60999;SDS011;46879;45.658;11.814;2022-12-29T20:44:43;17.23;;;8.88;;
60999;SDS011;46879;45.658;11.814;2022-12-29T20:49:44;13.85;;;8.85;;
60999;SDS011;46879;45.658;11.814;2022-12-29T20:54:44;15.63;;;8.63;;
60999;SDS011;46879;45.658;11.814;2022-12-29T20:59:44;17.88;;;9.30;;
60999;SDS011;46879;45.658;11.814;2022-12-29T21:04:45;17.48;;;10.35;;
60999;SDS011;46879;45.658;11.814;2022-12-29T21:09:45;17.93;;;9.63;;
60999;SDS011;46879;45.658;11.814;2022-12-29T21:14:45;15.05;;;9.75;;
60999;SDS011;46879;45.658;11.814;2022-12-29T21:19:45;15.75;;;9.30;;
60999;SDS011;46879;45.658;11.814;2022-12-29T21:24:46;16.23;;;9.88;;
60999;SDS011;46879;45.658;11.814;2022-12-29T21:29:46;19.00;;;11.07;;
60999;SDS011;46879;45.658;11.814;2022-12-29T21:34:46;18.52;;;9.40;;
60999;SDS011;46879;45.658;11.814;2022-12-29T21:39:46;17.98;;;10.25;;
60999;SDS011;46879;45.658;11.814;2022-12-29T21:44:47;16.90;;;10.80;;
60999;SDS011;46879;45.658;11.814;2022-12-29T21:50:05;19.33;;;10.88;;
60999;SDS011;46879;45.658;11.814;2022-12-29T21:55:06;17.30;;;11.00;;
60999;SDS011;46879;45.658;11.814;2022-12-29T22:00:08;20.17;;;10.82;;
60999;SDS011;46879;45.658;11.814;2022-12-29T22:05:26;18.05;;;10.77;;
60999;SDS011;46879;45.658;11.814;2022-12-29T22:10:46;17.50;;;11.85;;
60999;SDS011;46879;45.658;11.814;2022-12-29T22:16:06;17.13;;;11.02;;
60999;SDS011;46879;45.658;11.814;2022-12-29T22:21:08;19.80;;;10.90;;
60999;SDS011;46879;45.658;11.814;2022-12-29T22:26:09;19.83;;;10.98;;
60999;SDS011;46879;45.658;11.814;2022-12-29T22:36:20;19.10;;;11.23;;
60999;SDS011;46879;45.658;11.814;2022-12-29T22:41:21;21.10;;;11.93;;
60999;SDS011;46879;45.658;11.814;2022-12-29T22:46:21;17.13;;;11.43;;
60999;SDS011;46879;45.658;11.814;2022-12-29T22:51:21;15.13;;;11.20;;
60999;SDS011;46879;45.658;11.814;2022-12-29T22:56:22;16.98;;;11.55;;
60999;SDS011;46879;45.658;11.814;2022-12-29T23:01:22;18.92;;;11.63;;
60999;SDS011;46879;45.658;11.814;2022-12-29T23:06:23;19.98;;;11.98;;
60999;SDS011;46879;45.658;11.814;2022-12-29T23:11:23;18.05;;;11.15;;
60999;SDS011;46879;45.658;11.814;2022-12-29T23:16:24;19.37;;;11.50;;
60999;SDS011;46879;45.658;11.814;2022-12-29T23:21:24;21.98;;;12.05;;
60999;SDS011;46879;45.658;11.814;2022-12-29T23:26:26;26.00;;;11.48;;
60999;SDS011;46879;45.658;11.814;2022-12-29T23:31:26;22.27;;;11.88;;
60999;SDS011;46879;45.658;11.814;2022-12-29T23:36:27;24.35;;;12.07;;
60999;SDS011;46879;45.658;11.814;2022-12-29T23:41:28;19.75;;;11.10;;
60999;SDS011;46879;45.658;11.814;2022-12-29T23:46:28;24.07;;;12.73;;
60999;SDS011;46879;45.658;11.814;2022-12-29T23:51:30;19.00;;;11.50;;
60999;SDS011;46879;45.658;11.814;2022-12-29T23:56:30;20.55;;;12.13;;
